Time;durP1;ratioP1;P1;durP2;ratioP2;P2;SDS_P1;SDS_P2;PMS_P1;PMS_P2;Temp;Humidity;BMP_temperature;BMP_pressure;BME280_temperature;BME280_humidity;BME280_pressure;Samples;Min_cycle;Max_cycle;Signal;HPM_P1;HPM_P2
2023/07/01 00:02:02;;;;;;;2.67;2.57;;;;;;;-146.25;100.00;57403.91;5036480;28;20243;-87
2023/07/01 00:04:29;;;;;;;5.43;2.53;;;;;;;-146.25;100.00;57403.91;5035411;28;20205;-88
2023/07/01 00:06:57;;;;;;;2.77;2.67;;;;;;;-146.25;100.00;57403.91;5034092;28;20210;-87
2023/07/01 00:09:25;;;;;;;3.13;2.60;;;;;;;-146.25;100.00;57403.91;5034584;28;20212;-89
2023/07/01 00:11:53;;;;;;;2.50;2.30;;;;;;;-146.25;100.00;57403.91;5035191;28;20225;-88
2023/07/01 00:14:20;;;;;;;2.70;2.60;;;;;;;-146.25;100.00;57403.91;5034400;28;20291;-88
2023/07/01 00:16:48;;;;;;;3.10;2.90;;;;;;;-146.25;100.00;57403.91;5035501;28;20196;-88
2023/07/01 00:19:17;;;;;;;2.83;2.60;;;;;;;-146.25;100.00;57403.91;5054918;28;20198;-89
2023/07/01 00:21:46;;;;;;;3.30;3.10;;;;;;;-146.25;100.00;57403.91;5054732;28;20299;-86
2023/07/01 00:24:13;;;;;;;4.53;3.00;;;;;;;-146.25;100.00;57403.91;5062813;28;20205;-87
2023/07/01 00:26:41;;;;;;;3.20;2.90;;;;;;;-146.25;100.00;57403.91;5060613;28;20211;-87
2023/07/01 00:29:07;;;;;;;4.07;3.37;;;;;;;-146.25;100.00;57403.91;5057389;28;20341;-88
2023/07/01 00:31:35;;;;;;;5.13;3.70;;;;;;;-146.25;100.00;57403.91;5059712;28;20231;-88
2023/07/01 00:34:03;;;;;;;3.40;2.93;;;;;;;-146.25;100.00;57403.91;5059861;28;20201;-88
2023/07/01 00:36:32;;;;;;;3.37;3.13;;;;;;;-146.25;100.00;57403.91;5062322;28;20227;-87
2023/07/01 00:39:02;;;;;;;3.40;2.77;;;;;;;-146.25;100.00;57403.91;5060618;28;20671;-89
2023/07/01 00:41:32;;;;;;;2.60;2.50;;;;;;;-146.25;100.00;57403.91;5060261;28;20712;-88
2023/07/01 00:44:03;;;;;;;4.47;3.03;;;;;;;-146.25;100.00;57403.91;5054351;28;20216;-88
2023/07/01 00:46:33;;;;;;;3.10;2.87;;;;;;;-146.25;100.00;57403.91;5052503;28;20215;-89
2023/07/01 00:49:01;;;;;;;3.13;2.80;;;;;;;-146.25;100.00;57403.91;5052410;28;20214;-87
2023/07/01 00:51:28;;;;;;;3.67;3.03;;;;;;;-146.25;100.00;57403.91;5052783;28;20326;-89
2023/07/01 00:53:57;;;;;;;2.77;2.57;;;;;;;-146.25;100.00;57403.91;5051441;28;20191;-90
2023/07/01 00:56:24;;;;;;;3.37;3.07;;;;;;;-146.25;100.00;57403.91;5051357;28;20227;-88
2023/07/01 00:58:52;;;;;;;4.07;3.77;;;;;;;-146.25;100.00;57403.91;5051662;28;20207;-89
2023/07/01 01:01:29;;;;;;;3.83;3.47;;;;;;;-146.25;100.00;57403.91;5051465;28;20234;-89
2023/07/01 01:04:01;;;;;;;6.43;3.30;;;;;;;-146.25;100.00;57403.91;5051885;28;20199;-88
2023/07/01 01:06:36;;;;;;;3.63;3.33;;;;;;;-146.25;100.00;57403.91;5052083;28;20338;-88
2023/07/01 01:09:10;;;;;;;3.53;3.23;;;;;;;-146.25;100.00;57403.91;5051235;28;20208;-88
2023/07/01 01:11:42;;;;;;;4.00;3.17;;;;;;;-146.25;100.00;57403.91;5051204;28;20244;-87
2023/07/01 01:14:13;;;;;;;3.60;3.30;;;;;;;-146.25;100.00;57403.91;5052340;28;20198;-87
2023/07/01 01:16:41;;;;;;;3.33;3.10;;;;;;;-146.25;100.00;57403.91;5052477;28;20649;-89
2023/07/01 01:19:19;;;;;;;3.00;2.80;;;;;;;-146.25;100.00;57403.91;5075713;28;20334;-88
2023/07/01 01:21:53;;;;;;;3.90;3.40;;;;;;;-146.25;100.00;57403.91;5076493;28;20200;-87
2023/07/01 01:24:23;;;;;;;7.27;2.60;;;;;;;-146.25;100.00;57403.91;5075249;28;20302;-87
2023/07/01 01:26:55;;;;;;;3.43;2.77;;;;;;;-146.25;100.00;57403.91;5074270;28;20188;-87
2023/07/01 01:29:23;;;;;;;3.63;3.23;;;;;;;-146.25;100.00;57403.91;5063552;28;20191;-87
2023/07/01 01:31:50;;;;;;;3.77;3.13;;;;;;;-146.25;100.00;57403.91;5063419;28;20200;-88
2023/07/01 01:34:17;;;;;;;2.73;2.63;;;;;;;-146.25;100.00;57403.91;5061882;28;20203;-87
2023/07/01 01:36:51;;;;;;;3.43;3.13;;;;;;;-146.25;100.00;57403.91;5063350;28;20199;-86
2023/07/01 01:39:26;;;;;;;3.63;3.17;;;;;;;-146.25;100.00;57403.91;5051627;28;20210;-87
2023/07/01 01:41:59;;;;;;;2.63;2.53;;;;;;;-146.25;100.00;57403.91;5050033;28;20588;-88
2023/07/01 01:44:37;;;;;;;4.13;3.20;;;;;;;-146.25;100.00;57403.91;5061048;28;20199;-87
2023/07/01 01:47:05;;;;;;;3.03;2.83;;;;;;;-146.25;100.00;57403.91;5049961;28;20238;-88
2023/07/01 01:49:34;;;;;;;2.93;2.73;;;;;;;-146.25;100.00;57403.91;5050011;28;20618;-88
2023/07/01 01:52:03;;;;;;;3.13;2.70;;;;;;;-146.25;100.00;57403.91;5051570;28;20199;-88
2023/07/01 01:54:30;;;;;;;3.73;3.30;;;;;;;-146.25;100.00;57403.91;5050204;28;20683;-87
2023/07/01 01:56:57;;;;;;;3.40;3.10;;;;;;;-146.25;100.00;57403.91;5050609;28;20242;-89
2023/07/01 01:59:25;;;;;;;3.27;2.97;;;;;;;-146.25;100.00;57403.91;5050830;28;20676;-88
2023/07/01 02:01:55;;;;;;;3.77;2.90;;;;;;;-146.25;100.00;57403.91;5050444;28;20238;-89
2023/07/01 02:04:22;;;;;;;3.20;2.63;;;;;;;-146.25;100.00;57403.91;5051029;28;20299;-88
2023/07/01 02:06:50;;;;;;;7.77;3.97;;;;;;;-146.25;100.00;57403.91;5050560;28;20232;-87
2023/07/01 02:09:17;;;;;;;3.60;3.20;;;;;;;-146.25;100.00;57403.91;5051824;28;20670;-87
2023/07/01 02:11:44;;;;;;;7.87;3.27;;;;;;;-146.25;100.00;57403.91;5060345;28;20275;-87
2023/07/01 02:14:11;;;;;;;7.00;3.63;;;;;;;-146.25;100.00;57403.91;5055381;28;20305;-88
2023/07/01 02:16:38;;;;;;;3.27;2.97;;;;;;;-146.25;100.00;57403.91;5055677;28;20195;-87
2023/07/01 02:19:07;;;;;;;3.13;2.73;;;;;;;-146.25;100.00;57403.91;5053517;28;20652;-88
2023/07/01 02:21:35;;;;;;;5.90;3.50;;;;;;;-146.25;100.00;57403.91;5057252;28;20227;-87
2023/07/01 02:24:02;;;;;;;3.20;2.93;;;;;;;-146.25;100.00;57403.91;5067381;28;20199;-87
2023/07/01 02:26:29;;;;;;;4.40;3.37;;;;;;;-146.25;100.00;57403.91;5059618;28;20208;-87
2023/07/01 02:28:56;;;;;;;3.70;3.40;;;;;;;-146.25;100.00;57403.91;5055495;28;20200;-86
2023/07/01 02:31:24;;;;;;;7.43;3.60;;;;;;;-146.25;100.00;57403.91;5053627;28;20211;-87
2023/07/01 02:33:51;;;;;;;3.50;3.30;;;;;;;-146.25;100.00;57403.91;5050354;28;20398;-86
2023/07/01 02:36:23;;;;;;;3.07;2.80;;;;;;;-146.25;100.00;57403.91;5049108;28;20205;-88
2023/07/01 02:38:50;;;;;;;3.13;2.83;;;;;;;-146.25;100.00;57403.91;5050574;28;20746;-86
2023/07/01 02:41:17;;;;;;;3.20;2.93;;;;;;;-146.25;100.00;57403.91;5048694;28;20250;-87
2023/07/01 02:43:44;;;;;;;3.33;3.13;;;;;;;-146.25;100.00;57403.91;5050422;28;20231;-88
2023/07/01 02:46:12;;;;;;;5.43;3.33;;;;;;;-146.25;100.00;57403.91;5049915;28;20200;-88
2023/07/01 02:48:40;;;;;;;33.13;18.47;;;;;;;-146.25;100.00;57403.91;5048982;28;20725;-87
2023/07/01 02:51:08;;;;;;;9.33;6.77;;;;;;;-146.25;100.00;57403.91;5049633;28;20370;-87
2023/07/01 02:53:37;;;;;;;4.53;3.93;;;;;;;-146.25;100.00;57403.91;5049687;28;20207;-87
2023/07/01 02:56:05;;;;;;;4.53;4.03;;;;;;;-146.25;100.00;57403.91;5048884;28;20595;-87
2023/07/01 02:58:32;;;;;;;5.80;3.63;;;;;;;-146.25;100.00;57403.91;5050180;28;20215;-88
2023/07/01 03:01:00;;;;;;;6.87;4.23;;;;;;;-146.25;100.00;57403.91;5051012;28;20306;-87
2023/07/01 03:03:27;;;;;;;5.93;3.67;;;;;;;-146.25;100.00;57403.91;5054884;28;20199;-87
2023/07/01 03:05:54;;;;;;;3.60;3.33;;;;;;;-146.25;100.00;57403.91;5068045;28;20187;-87
2023/07/01 03:08:24;;;;;;;3.80;3.50;;;;;;;-146.25;100.00;57403.91;5074648;28;20202;-87
2023/07/01 03:10:52;;;;;;;4.00;3.63;;;;;;;-146.25;100.00;57403.91;5054699;28;20633;-88
2023/07/01 03:13:19;;;;;;;4.00;3.70;;;;;;;-146.25;100.00;57403.91;5050405;28;20260;-88
2023/07/01 03:15:47;;;;;;;3.50;3.20;;;;;;;-146.25;100.00;57403.91;5050561;28;20198;-87
2023/07/01 03:18:14;;;;;;;4.32;4.00;;;;;;;-146.25;100.00;57403.91;5048871;28;20209;-88
2023/07/01 03:20:41;;;;;;;8.70;3.90;;;;;;;-146.25;100.00;57403.91;5048859;28;20294;-87
2023/07/01 03:23:08;;;;;;;4.20;3.88;;;;;;;-146.25;100.00;57403.91;5048372;28;20201;-88
2023/07/01 03:25:36;;;;;;;3.60;3.30;;;;;;;-146.25;100.00;57403.91;5048898;28;20202;-88
2023/07/01 03:28:04;;;;;;;3.45;3.25;;;;;;;-146.25;100.00;57403.91;5048819;28;20219;-87
2023/07/01 03:30:32;;;;;;;3.92;3.47;;;;;;;-146.25;100.00;57403.91;5048816;28;20680;-89
2023/07/01 03:33:00;;;;;;;4.25;3.30;;;;;;;-146.25;100.00;57403.91;5050881;28;20214;-88
2023/07/01 03:35:29;;;;;;;3.35;3.15;;;;;;;-146.25;100.00;57403.91;5055706;28;20235;-88
2023/07/01 03:37:56;;;;;;;3.38;3.05;;;;;;;-146.25;100.00;57403.91;5055575;28;20230;-88
2023/07/01 03:40:23;;;;;;;3.85;3.55;;;;;;;-146.25;100.00;57403.91;5055262;28;20203;-90
2023/07/01 03:42:51;;;;;;;3.83;3.63;;;;;;;-146.25;100.00;57403.91;5055794;28;20203;-88
2023/07/01 03:45:19;;;;;;;3.42;3.20;;;;;;;-146.25;100.00;57403.91;5055469;28;20631;-88
2023/07/01 03:47:47;;;;;;;3.80;3.50;;;;;;;-146.25;100.00;57403.91;5057445;28;20199;-89
2023/07/01 03:50:15;;;;;;;3.38;3.17;;;;;;;-146.25;100.00;57403.91;5056480;28;20238;-89
2023/07/01 03:52:43;;;;;;;3.38;3.17;;;;;;;-146.25;100.00;57403.91;5055693;28;20620;-89
2023/07/01 03:55:12;;;;;;;3.70;3.50;;;;;;;-146.25;100.00;57403.91;5055493;28;20753;-88
2023/07/01 03:57:40;;;;;;;3.95;3.47;;;;;;;-146.25;100.00;57403.91;5056421;28;20307;-88
2023/07/01 04:00:17;;;;;;;3.95;3.45;;;;;;;-146.25;100.00;57403.91;5056003;28;20748;-88
2023/07/01 04:02:51;;;;;;;3.55;3.35;;;;;;;-146.25;100.00;57403.91;5056676;28;20198;-88
2023/07/01 04:05:19;;;;;;;3.60;3.50;;;;;;;-146.25;100.00;57403.91;5057602;28;20187;-88
2023/07/01 04:07:49;;;;;;;4.50;3.53;;;;;;;-146.25;100.00;57403.91;5055173;28;20191;-88
2023/07/01 04:10:16;;;;;;;3.60;3.40;;;;;;;-146.25;100.00;57403.91;5054651;28;20245;-89
2023/07/01 04:12:44;;;;;;;4.32;3.75;;;;;;;-146.25;100.00;57403.91;5055571;28;20215;-88
2023/07/01 04:15:12;;;;;;;3.88;3.17;;;;;;;-146.25;100.00;57403.91;5055641;28;20206;-87
2023/07/01 04:17:42;;;;;;;5.00;4.32;;;;;;;-146.25;100.00;57403.91;5055970;28;20639;-88
2023/07/01 04:20:13;;;;;;;4.88;3.50;;;;;;;-146.25;100.00;57403.91;5055134;28;20211;-88
2023/07/01 04:22:40;;;;;;;3.22;3.05;;;;;;;-146.25;100.00;57403.91;5055879;28;20215;-88
2023/07/01 04:25:08;;;;;;;2.90;2.80;;;;;;;-146.25;100.00;57403.91;5056702;28;20208;-89
2023/07/01 04:27:36;;;;;;;3.72;3.42;;;;;;;-146.25;100.00;57403.91;5056750;28;20195;-87
2023/07/01 04:30:04;;;;;;;3.13;2.85;;;;;;;-146.25;100.00;57403.91;5054683;28;20672;-86
2023/07/01 04:32:35;;;;;;;3.55;3.45;;;;;;;-146.25;100.00;57403.91;5055054;28;20325;-87
2023/07/01 04:35:02;;;;;;;3.60;3.40;;;;;;;-146.25;100.00;57403.91;5057188;28;20208;-88
2023/07/01 04:37:35;;;;;;;3.42;3.33;;;;;;;-146.25;100.00;57403.91;5055877;28;20199;-87
2023/07/01 04:40:04;;;;;;;3.38;2.97;;;;;;;-146.25;100.00;57403.91;5041270;28;20211;-88
2023/07/01 04:42:33;;;;;;;3.22;3.03;;;;;;;-146.25;100.00;57403.91;5045298;28;20617;-89
2023/07/01 04:45:00;;;;;;;4.15;3.70;;;;;;;-146.25;100.00;57403.91;5047038;28;20234;-87
2023/07/01 04:47:28;;;;;;;3.67;3.47;;;;;;;-146.25;100.00;57403.91;5046996;28;20612;-86
2023/07/01 04:49:55;;;;;;;3.50;3.40;;;;;;;-146.25;100.00;57403.91;5037925;28;20228;-87
2023/07/01 04:52:23;;;;;;;4.13;3.92;;;;;;;-146.25;100.00;57403.91;5042239;28;20207;-87
2023/07/01 04:54:52;;;;;;;9.88;3.70;;;;;;;-146.25;100.00;57403.91;5042565;28;20209;-86
2023/07/01 04:57:19;;;;;;;3.90;3.60;;;;;;;-146.25;100.00;57403.91;5048100;28;20195;-87
2023/07/01 04:59:48;;;;;;;3.83;3.70;;;;;;;-146.25;100.00;57403.91;5038700;28;20217;-87
2023/07/01 05:02:15;;;;;;;3.85;3.53;;;;;;;-146.25;100.00;57403.91;5031565;28;20285;-85
2023/07/01 05:04:42;;;;;;;4.15;3.85;;;;;;;-146.25;100.00;57403.91;5031535;28;20207;-88
2023/07/01 05:07:12;;;;;;;4.18;3.97;;;;;;;-146.25;100.00;57403.91;5031432;28;20283;-87
2023/07/01 05:09:40;;;;;;;4.15;3.90;;;;;;;-146.25;100.00;57403.91;5030546;28;20184;-88
2023/07/01 05:12:10;;;;;;;3.72;3.42;;;;;;;-146.25;100.00;57403.91;5031720;28;20227;-89
2023/07/01 05:14:37;;;;;;;4.18;3.92;;;;;;;-146.25;100.00;57403.91;5030590;28;20383;-88
2023/07/01 05:17:04;;;;;;;5.10;4.05;;;;;;;-146.25;100.00;57403.91;5031320;28;20203;-86
2023/07/01 05:19:32;;;;;;;3.97;3.75;;;;;;;-146.25;100.00;57403.91;5048484;28;20215;-87
2023/07/01 05:22:07;;;;;;;4.03;3.83;;;;;;;-146.25;100.00;57403.91;5050678;28;20255;-87
2023/07/01 05:24:34;;;;;;;4.05;3.58;;;;;;;-146.25;100.00;57403.91;5061410;28;20194;-88
2023/07/01 05:27:03;;;;;;;4.63;4.22;;;;;;;-146.25;100.00;57403.91;5051291;28;20239;-87
2023/07/01 05:29:36;;;;;;;4.32;3.88;;;;;;;-146.25;100.00;57403.91;5051165;28;20681;-87
2023/07/01 05:32:04;;;;;;;4.15;3.95;;;;;;;-146.25;100.00;57403.91;5051947;28;20264;-88
2023/07/01 05:34:34;;;;;;;5.55;3.78;;;;;;;-146.25;100.00;57403.91;5052282;28;20249;-87
2023/07/01 05:37:01;;;;;;;4.65;4.35;;;;;;;-146.25;100.00;57403.91;5051594;28;20553;-86
2023/07/01 05:39:30;;;;;;;4.28;4.07;;;;;;;-146.25;100.00;57403.91;5050509;28;20210;-88
2023/07/01 05:42:01;;;;;;;4.10;3.90;;;;;;;-146.25;100.00;57403.91;5051399;28;20238;-88
2023/07/01 05:44:28;;;;;;;4.30;4.00;;;;;;;-146.25;100.00;57403.91;5052091;28;20187;-89
2023/07/01 05:46:57;;;;;;;4.07;3.88;;;;;;;-146.25;100.00;57403.91;5050902;28;20203;-86
2023/07/01 05:49:24;;;;;;;4.43;4.22;;;;;;;-146.25;100.00;57403.91;5050901;28;20447;-88
2023/07/01 05:51:54;;;;;;;5.40;4.93;;;;;;;-146.25;100.00;57403.91;5052919;28;20586;-88
2023/07/01 05:54:22;;;;;;;4.68;4.38;;;;;;;-146.25;100.00;57403.91;5049788;28;20289;-87
2023/07/01 05:56:50;;;;;;;5.78;5.28;;;;;;;-146.25;100.00;57403.91;5050752;28;20207;-87
2023/07/01 05:59:17;;;;;;;4.70;4.10;;;;;;;-146.25;100.00;57403.91;5050739;28;20213;-85
2023/07/01 06:01:44;;;;;;;4.25;4.05;;;;;;;-146.25;100.00;57403.91;5051681;28;20616;-87
2023/07/01 06:04:19;;;;;;;3.88;3.67;;;;;;;-146.25;100.00;57403.91;5054190;28;20195;-87
2023/07/01 06:06:49;;;;;;;11.32;9.32;;;;;;;-146.25;100.00;57403.91;5051016;28;20213;-87
2023/07/01 06:09:17;;;;;;;3.90;3.70;;;;;;;-146.25;100.00;57403.91;5049680;28;20210;-88
2023/07/01 06:11:44;;;;;;;4.55;4.10;;;;;;;-146.25;100.00;57403.91;5052265;28;20227;-87
2023/07/01 06:14:15;;;;;;;4.30;4.10;;;;;;;-146.25;100.00;57403.91;5050140;28;20199;-88
2023/07/01 06:16:43;;;;;;;4.32;3.92;;;;;;;-146.25;100.00;57403.91;5049900;28;20218;-90
2023/07/01 06:19:18;;;;;;;4.50;4.22;;;;;;;-146.25;100.00;57403.91;5051269;28;20293;-88
2023/07/01 06:21:49;;;;;;;4.70;4.40;;;;;;;-146.25;100.00;57403.91;5053140;28;20214;-86
2023/07/01 06:24:16;;;;;;;5.30;4.97;;;;;;;-146.25;100.00;57403.91;5049459;28;20198;-87
2023/07/01 06:26:46;;;;;;;4.68;4.03;;;;;;;-146.25;100.00;57403.91;5052829;28;20202;-86
2023/07/01 06:29:13;;;;;;;4.30;3.90;;;;;;;-146.25;100.00;57403.91;5050425;28;20545;-86
2023/07/01 06:31:41;;;;;;;4.35;4.05;;;;;;;-146.25;100.00;57403.91;5050424;28;20214;-87
2023/07/01 06:34:16;;;;;;;4.13;3.92;;;;;;;-146.25;100.00;57403.91;5050113;28;20623;-89
2023/07/01 06:36:47;;;;;;;4.07;3.78;;;;;;;-146.25;100.00;57403.91;5050090;28;20289;-86
2023/07/01 06:39:40;;;;;;;3.92;3.63;;;;;;;-146.25;100.00;57403.91;5058398;28;20210;-88
2023/07/01 06:42:12;;;;;;;5.85;5.43;;;;;;;-146.25;100.00;57403.91;5054873;28;20291;-89
2023/07/01 06:44:39;;;;;;;4.18;3.97;;;;;;;-146.25;100.00;57403.91;5051753;28;20296;-87
2023/07/01 06:47:07;;;;;;;3.80;3.53;;;;;;;-146.25;100.00;57403.91;5054542;28;20264;-88
2023/07/01 06:49:34;;;;;;;4.32;3.92;;;;;;;-146.25;100.00;57403.91;5065404;28;20740;-86
2023/07/01 06:52:04;;;;;;;3.90;3.70;;;;;;;-146.25;100.00;57403.91;5069634;28;20271;-86
2023/07/01 06:54:33;;;;;;;4.07;3.78;;;;;;;-146.25;100.00;57403.91;5053406;28;20221;-87
2023/07/01 06:57:01;;;;;;;4.13;3.92;;;;;;;-146.25;100.00;57403.91;5055700;28;20226;-87
2023/07/01 06:59:28;;;;;;;6.22;4.55;;;;;;;-146.25;100.00;57403.91;5057689;28;20199;-86
2023/07/01 07:01:56;;;;;;;3.67;3.47;;;;;;;-146.25;100.00;57403.91;5071817;28;20227;-86
2023/07/01 07:04:24;;;;;;;4.68;4.38;;;;;;;-146.25;100.00;57403.91;5063695;28;20279;-86
2023/07/01 07:06:52;;;;;;;3.30;3.17;;;;;;;-146.25;100.00;57403.91;5051783;28;20508;-87
2023/07/01 07:09:22;;;;;;;4.15;3.85;;;;;;;-146.25;100.00;57403.91;5050264;28;20421;-87
2023/07/01 07:11:51;;;;;;;4.55;4.35;;;;;;;-146.25;100.00;57403.91;5051257;28;20222;-88
2023/07/01 07:14:19;;;;;;;4.88;4.57;;;;;;;-146.25;100.00;57403.91;5050820;28;20194;-88
2023/07/01 07:16:47;;;;;;;4.30;4.10;;;;;;;-146.25;100.00;57403.91;5050226;28;20199;-87
2023/07/01 07:19:19;;;;;;;4.20;3.90;;;;;;;-146.25;100.00;57403.91;5042325;28;20234;-88
2023/07/01 07:21:47;;;;;;;4.47;3.67;;;;;;;-146.25;100.00;57403.91;5041303;28;20231;-88
2023/07/01 07:24:30;;;;;;;4.85;4.55;;;;;;;-146.25;100.00;57403.91;5049400;28;20206;-87
2023/07/01 07:27:02;;;;;;;4.82;4.47;;;;;;;-146.25;100.00;57403.91;5045959;28;20231;-87
2023/07/01 07:29:29;;;;;;;6.40;4.43;;;;;;;-146.25;100.00;57403.91;5047177;28;20372;-88
2023/07/01 07:31:57;;;;;;;5.22;4.82;;;;;;;-146.25;100.00;57403.91;5046871;28;20650;-88
2023/07/01 07:34:24;;;;;;;4.95;4.57;;;;;;;-146.25;100.00;57403.91;5047221;28;20242;-87
2023/07/01 07:36:52;;;;;;;4.78;4.43;;;;;;;-146.25;100.00;57403.91;5036951;28;20250;-88
2023/07/01 07:39:19;;;;;;;4.30;4.10;;;;;;;-146.25;100.00;57403.91;5039625;28;20235;-87
2023/07/01 07:41:47;;;;;;;4.13;3.92;;;;;;;-146.25;100.00;57403.91;5040195;28;20285;-88
2023/07/01 07:44:16;;;;;;;3.88;3.67;;;;;;;-146.25;100.00;57403.91;5039952;28;20245;-88
2023/07/01 07:46:44;;;;;;;4.18;3.97;;;;;;;-146.25;100.00;57403.91;5035335;28;20326;-87
2023/07/01 07:49:11;;;;;;;3.78;3.58;;;;;;;-146.25;100.00;57403.91;5048257;28;20227;-87
2023/07/01 07:51:39;;;;;;;3.90;3.63;;;;;;;-146.25;100.00;57403.91;5046135;28;20233;-87
2023/07/01 07:54:07;;;;;;;4.35;3.53;;;;;;;-146.25;100.00;57403.91;5049297;28;20218;-87
2023/07/01 07:56:34;;;;;;;3.50;3.30;;;;;;;-146.25;100.00;57403.91;5047525;28;20288;-86
2023/07/01 07:59:01;;;;;;;3.58;3.28;;;;;;;-146.25;100.00;57403.91;5047761;28;20230;-88
2023/07/01 08:01:32;;;;;;;3.38;3.08;;;;;;;-146.25;100.00;57403.91;5046944;28;20660;-87
2023/07/01 08:03:59;;;;;;;3.70;3.50;;;;;;;-146.25;100.00;57403.91;5047437;28;20235;-87
2023/07/01 08:06:28;;;;;;;3.88;3.63;;;;;;;-146.25;100.00;57403.91;5046288;28;20218;-88
2023/07/01 08:08:56;;;;;;;3.80;3.65;;;;;;;-146.25;100.00;57403.91;5048504;28;20321;-89
2023/07/01 08:11:23;;;;;;;4.15;3.95;;;;;;;-146.25;100.00;57403.91;5051267;28;20241;-87
2023/07/01 08:13:51;;;;;;;4.15;3.95;;;;;;;-146.25;100.00;57403.91;5047857;28;20231;-88
2023/07/01 08:16:21;;;;;;;3.85;3.55;;;;;;;-146.25;100.00;57403.91;5051259;28;20222;-88
2023/07/01 08:18:50;;;;;;;3.70;3.50;;;;;;;-146.25;100.00;57403.91;5048064;28;20235;-88
2023/07/01 08:21:20;;;;;;;3.72;3.53;;;;;;;-146.25;100.00;57403.91;5050996;28;20235;-87
2023/07/01 08:23:50;;;;;;;3.63;3.28;;;;;;;-146.25;100.00;57403.91;5051994;28;20234;-88
2023/07/01 08:26:17;;;;;;;4.20;3.95;;;;;;;-146.25;100.00;57403.91;5050985;28;20249;-87
2023/07/01 08:28:44;;;;;;;5.32;4.10;;;;;;;-146.25;100.00;57403.91;5051641;28;20242;-88
2023/07/01 08:31:12;;;;;;;4.13;3.72;;;;;;;-146.25;100.00;57403.91;5052602;28;20319;-87
2023/07/01 08:33:39;;;;;;;4.00;3.70;;;;;;;-146.25;100.00;57403.91;5051266;28;20235;-86
2023/07/01 08:36:09;;;;;;;3.92;3.72;;;;;;;-146.25;100.00;57403.91;5050822;28;20198;-86
2023/07/01 08:38:40;;;;;;;3.17;3.05;;;;;;;-146.25;100.00;57403.91;5049719;28;20202;-87
2023/07/01 08:41:13;;;;;;;3.22;3.00;;;;;;;-146.25;100.00;57403.91;5050037;28;20594;-88
2023/07/01 08:43:41;;;;;;;3.17;2.95;;;;;;;-146.25;100.00;57403.91;5050356;28;20230;-87
2023/07/01 08:46:19;;;;;;;3.47;3.20;;;;;;;-146.25;100.00;57403.91;5048863;28;20214;-87
2023/07/01 08:48:47;;;;;;;3.88;3.60;;;;;;;-146.25;100.00;57403.91;5050293;28;20222;-87
2023/07/01 08:51:22;;;;;;;3.35;3.22;;;;;;;-146.25;100.00;57403.91;5048948;28;20814;-87
2023/07/01 08:53:49;;;;;;;3.95;3.67;;;;;;;-146.25;100.00;57403.91;5050456;28;20195;-87
2023/07/01 08:56:20;;;;;;;4.63;4.32;;;;;;;-146.25;100.00;57403.91;5049135;28;20562;-86
2023/07/01 08:58:48;;;;;;;4.28;3.88;;;;;;;-146.25;100.00;57403.91;5048800;28;20683;-87
2023/07/01 09:01:17;;;;;;;3.95;3.53;;;;;;;-146.25;100.00;57403.91;5049812;28;20195;-87
2023/07/01 09:03:47;;;;;;;3.42;3.22;;;;;;;-146.25;100.00;57403.91;5049559;28;20245;-87
2023/07/01 09:06:16;;;;;;;3.67;3.28;;;;;;;-146.25;100.00;57403.91;5050806;28;20203;-87
2023/07/01 09:08:45;;;;;;;4.03;3.75;;;;;;;-146.25;100.00;57403.91;5063545;28;20198;-86
2023/07/01 09:11:18;;;;;;;4.00;3.70;;;;;;;-146.25;100.00;57403.91;5073846;28;20657;-87
2023/07/01 09:13:46;;;;;;;3.72;3.42;;;;;;;-146.25;100.00;57403.91;5073923;28;20523;-88
2023/07/01 09:16:12;;;;;;;3.63;3.50;;;;;;;-146.25;100.00;57403.91;5071751;28;20225;-87
2023/07/01 09:18:43;;;;;;;3.55;3.35;;;;;;;-146.25;100.00;57403.91;5070603;28;20202;-86
2023/07/01 09:21:20;;;;;;;4.65;3.25;;;;;;;-146.25;100.00;57403.91;5069833;28;20202;-88
2023/07/01 09:23:46;;;;;;;3.80;3.17;;;;;;;-146.25;100.00;57403.91;5072140;28;20709;-87
2023/07/01 09:26:17;;;;;;;3.35;3.15;;;;;;;-146.25;100.00;57403.91;5071117;28;20698;-86
2023/07/01 09:28:45;;;;;;;3.67;3.47;;;;;;;-146.25;100.00;57403.91;5069500;28;20670;-87
2023/07/01 09:31:15;;;;;;;3.38;3.00;;;;;;;-146.25;100.00;57403.91;5070151;28;20207;-87
2023/07/01 09:33:58;;;;;;;3.63;3.38;;;;;;;-146.25;100.00;57403.91;5070806;28;20564;-87
2023/07/01 09:36:28;;;;;;;3.60;3.25;;;;;;;-146.25;100.00;57403.91;5069326;28;20191;-85
2023/07/01 09:38:56;;;;;;;2.90;2.70;;;;;;;-146.25;100.00;57403.91;5070615;28;20575;-87
2023/07/01 09:41:26;;;;;;;3.55;3.25;;;;;;;-146.25;100.00;57403.91;5069788;28;20272;-86
2023/07/01 09:43:55;;;;;;;2.97;2.88;;;;;;;-146.25;100.00;57403.91;5069749;28;20397;-87
2023/07/01 09:46:22;;;;;;;3.65;3.35;;;;;;;-146.25;100.00;57403.91;5069788;28;20206;-86
2023/07/01 09:48:54;;;;;;;3.38;3.20;;;;;;;-146.25;100.00;57403.91;5070001;28;20209;-87
2023/07/01 09:51:22;;;;;;;3.63;3.42;;;;;;;-146.25;100.00;57403.91;5069900;28;20238;-87
2023/07/01 09:53:51;;;;;;;4.68;3.08;;;;;;;-146.25;100.00;57403.91;5069913;28;20285;-88
2023/07/01 09:56:22;;;;;;;4.10;3.90;;;;;;;-146.25;100.00;57403.91;5067817;28;20491;-89
2023/07/01 09:58:50;;;;;;;3.33;3.13;;;;;;;-146.25;100.00;57403.91;5069834;28;20207;-88
2023/07/01 10:01:19;;;;;;;4.32;3.60;;;;;;;-146.25;100.00;57403.91;5070104;28;20249;-87
2023/07/01 10:03:46;;;;;;;3.75;3.50;;;;;;;-146.25;100.00;57403.91;5070027;28;20230;-87
2023/07/01 10:06:13;;;;;;;3.88;3.58;;;;;;;-146.25;100.00;57403.91;5068829;28;20323;-88
2023/07/01 10:08:44;;;;;;;4.10;3.33;;;;;;;-146.25;100.00;57403.91;5069004;28;20203;-88
2023/07/01 10:11:16;;;;;;;2.95;2.85;;;;;;;-146.25;100.00;57403.91;5069754;28;20240;-88
2023/07/01 10:13:46;;;;;;;3.65;3.45;;;;;;;-146.25;100.00;57403.91;5070761;28;20214;-88
2023/07/01 10:16:14;;;;;;;3.45;3.25;;;;;;;-146.25;100.00;57403.91;5072494;28;20213;-88
2023/07/01 10:18:42;;;;;;;3.53;3.33;;;;;;;-146.25;100.00;57403.91;5073407;28;20632;-88
2023/07/01 10:21:36;;;;;;;3.97;3.67;;;;;;;-146.25;100.00;57403.91;5070014;28;20663;-89
2023/07/01 10:24:04;;;;;;;4.32;3.92;;;;;;;-146.25;100.00;57403.91;5024558;28;20283;-87
2023/07/01 10:26:37;;;;;;;4.35;3.90;;;;;;;-146.25;100.00;57403.91;5082728;28;20222;-86
2023/07/01 10:29:39;;;;;;;3.85;3.50;;;;;;;-146.25;100.00;57403.91;5076038;28;20229;-88
2023/07/01 10:32:32;;;;;;;3.70;3.40;;;;;;;-146.25;100.00;57403.91;5070303;28;20198;-87
2023/07/01 10:35:16;;;;;;;4.15;3.70;;;;;;;-146.25;100.00;57403.91;5071054;28;20707;-87
2023/07/01 10:37:45;;;;;;;3.85;3.47;;;;;;;-146.25;100.00;57403.91;5071652;28;20324;-87
2023/07/01 10:40:51;;;;;;;3.45;3.25;;;;;;;-146.25;100.00;57403.91;5072155;28;20325;-88
2023/07/01 10:43:25;;;;;;;3.35;3.15;;;;;;;-146.25;100.00;57403.91;5071858;28;20226;-87
2023/07/01 10:46:23;;;;;;;3.70;3.50;;;;;;;-146.25;100.00;57403.91;5070112;28;20186;-88
2023/07/01 10:49:14;;;;;;;3.58;3.38;;;;;;;-146.25;100.00;57403.91;5054682;28;20263;-87
2023/07/01 10:52:07;;;;;;;4.70;3.65;;;;;;;-146.25;100.00;57403.91;5062729;28;20229;-89
2023/07/01 10:54:38;;;;;;;3.67;3.38;;;;;;;-146.25;100.00;57403.91;5070734;28;20195;-88
2023/07/01 10:57:18;;;;;;;3.58;3.33;;;;;;;-146.25;100.00;57403.91;5068575;28;20679;-87
2023/07/01 10:59:47;;;;;;;8.00;3.70;;;;;;;-146.25;100.00;57403.91;5070371;28;20213;-87
2023/07/01 11:02:38;;;;;;;4.25;3.67;;;;;;;-146.25;100.00;57403.91;5070295;28;20198;-88
2023/07/01 11:05:07;;;;;;;3.63;3.42;;;;;;;-146.25;100.00;57403.91;5069610;28;20280;-88
2023/07/01 11:07:41;;;;;;;3.67;3.38;;;;;;;-146.25;100.00;57403.91;5069522;28;20297;-86
2023/07/01 11:10:08;;;;;;;7.10;3.45;;;;;;;-146.25;100.00;57403.91;5069706;28;20201;-88
2023/07/01 11:12:36;;;;;;;7.93;3.60;;;;;;;-146.25;100.00;57403.91;5069123;28;20219;-88
2023/07/01 11:15:06;;;;;;;3.70;3.50;;;;;;;-146.25;100.00;57403.91;5069247;28;20199;-88
2023/07/01 11:17:38;;;;;;;3.67;3.47;;;;;;;-146.25;100.00;57403.91;5070030;28;20202;-89
2023/07/01 11:20:07;;;;;;;3.97;3.63;;;;;;;-146.25;100.00;57403.91;5069712;28;20199;-87
2023/07/01 11:22:35;;;;;;;3.72;3.42;;;;;;;-146.25;100.00;57403.91;5069000;28;20194;-87